ベルリン/テーゲル の空港の天気 - METARとTAF

ベルリン・テーゲル国際空港 ( EDDT / TXL ) - ドイツ ベルリン
飛行場実況気象(Metar)
観測時間08/18 04:50 CEST (08/18 02:50 UTC)
風向・風速南南東 2m/s
視程10km以上
天気現象
全天の8割程度の雲 雲底高度 910m
気温19℃
湿度88%
気圧1015hPa
METAREDDT 180250Z 16003KT 9999 BKN030 19/17 Q1015 NOSIG
過去の天気等 Google飛行場航空写真 Wunderground天気予報

過去48時間のMETAR

飛行場予報(TAF)
発表時間: 8/18 01:00 CEST (8/17 23:00 UTC)
予報対象時間: 18日2時 CEST ~ 19日2時 CEST
風向・風速西南西 4m/s
視程10km以上
なし
18日18時 CEST ~ 18日22時 CEST に 確率 30% で一時的に
風向・風速西南西 8m/s 瞬間風速 15m/s
天気現象雷雨
全天の8割程度の積乱雲 雲底高度 910m
TAF EDDT 172300Z 1800/1824 25007KT CAVOK
PROB30 TEMPO 1816/1820 24015G30KT TSRA BKN030CB